sensor_id;sensor_type;location;lat;lon;timestamp;pressure;altitude;pressure_sealevel;temperature;humidity
10852;BME280;5479;52.046;6.314;2023-07-29T00:00:58;100604.72;;;18.38;100.00
10852;BME280;5479;52.046;6.314;2023-07-29T00:03:27;100601.75;;;18.31;100.00
10852;BME280;5479;52.046;6.314;2023-07-29T00:05:58;100591.06;;;18.22;100.00
10852;BME280;5479;52.046;6.314;2023-07-29T00:08:26;100599.25;;;18.20;100.00
10852;BME280;5479;52.046;6.314;2023-07-29T00:10:57;100604.34;;;18.14;100.00
10852;BME280;5479;52.046;6.314;2023-07-29T00:13:29;100600.25;;;18.09;100.00
10852;BME280;5479;52.046;6.314;2023-07-29T00:16:03;100609.97;;;18.01;100.00
10852;BME280;5479;52.046;6.314;2023-07-29T00:18:32;100598.00;;;17.95;100.00
10852;BME280;5479;52.046;6.314;2023-07-29T00:21:04;100601.97;;;17.91;100.00
10852;BME280;5479;52.046;6.314;2023-07-29T00:23:32;100604.06;;;17.88;100.00
10852;BME280;5479;52.046;6.314;2023-07-29T00:26:00;100598.72;;;17.88;100.00
10852;BME280;5479;52.046;6.314;2023-07-29T00:28:39;100597.44;;;17.82;100.00
10852;BME280;5479;52.046;6.314;2023-07-29T00:31:08;100596.19;;;17.77;100.00
10852;BME280;5479;52.046;6.314;2023-07-29T00:33:40;100595.47;;;17.75;100.00
10852;BME280;5479;52.046;6.314;2023-07-29T00:36:10;100602.66;;;17.74;100.00
10852;BME280;5479;52.046;6.314;2023-07-29T00:38:40;100604.34;;;17.66;100.00
10852;BME280;5479;52.046;6.314;2023-07-29T00:41:08;100599.00;;;17.56;100.00
10852;BME280;5479;52.046;6.314;2023-07-29T00:43:39;100602.66;;;17.55;100.00
10852;BME280;5479;52.046;6.314;2023-07-29T00:46:09;100599.28;;;17.53;100.00
10852;BME280;5479;52.046;6.314;2023-07-29T00:48:39;100593.94;;;17.53;100.00
10852;BME280;5479;52.046;6.314;2023-07-29T00:51:07;100597.59;;;17.52;100.00
10852;BME280;5479;52.046;6.314;2023-07-29T00:53:37;100592.50;;;17.49;100.00
10852;BME280;5479;52.046;6.314;2023-07-29T00:56:05;100582.50;;;17.41;100.00
10852;BME280;5479;52.046;6.314;2023-07-29T00:58:34;100587.53;;;17.35;100.00
10852;BME280;5479;52.046;6.314;2023-07-29T01:01:02;100585.28;;;17.30;100.00
10852;BME280;5479;52.046;6.314;2023-07-29T01:03:33;100590.22;;;17.35;100.00
10852;BME280;5479;52.046;6.314;2023-07-29T01:06:12;100585.41;;;17.29;100.00
10852;BME280;5479;52.046;6.314;2023-07-29T01:08:51;100585.41;;;17.29;100.00
10852;BME280;5479;52.046;6.314;2023-07-29T01:11:33;100579.38;;;17.27;100.00
10852;BME280;5479;52.046;6.314;2023-07-29T01:14:14;100571.75;;;17.22;100.00
10852;BME280;5479;52.046;6.314;2023-07-29T01:16:52;100572.75;;;17.21;100.00
10852;BME280;5479;52.046;6.314;2023-07-29T01:19:34;100580.34;;;17.26;100.00
10852;BME280;5479;52.046;6.314;2023-07-29T01:22:13;100577.38;;;17.29;100.00
10852;BME280;5479;52.046;6.314;2023-07-29T01:24:45;100578.94;;;17.22;100.00
10852;BME280;5479;52.046;6.314;2023-07-29T01:27:13;100580.31;;;17.07;100.00
10852;BME280;5479;52.046;6.314;2023-07-29T01:29:41;100590.72;;;17.10;100.00
10852;BME280;5479;52.046;6.314;2023-07-29T01:32:13;100590.47;;;17.13;100.00
10852;BME280;5479;52.046;6.314;2023-07-29T01:34:46;100606.13;;;17.17;100.00
10852;BME280;5479;52.046;6.314;2023-07-29T01:37:19;100606.66;;;17.21;100.00
10852;BME280;5479;52.046;6.314;2023-07-29T01:39:55;100587.53;;;17.25;100.00
10852;BME280;5479;52.046;6.314;2023-07-29T01:42:24;100582.91;;;17.27;100.00
10852;BME280;5479;52.046;6.314;2023-07-29T01:44:53;100574.97;;;17.26;100.00
10852;BME280;5479;52.046;6.314;2023-07-29T01:47:26;100566.97;;;17.26;100.00
10852;BME280;5479;52.046;6.314;2023-07-29T01:49:54;100565.97;;;17.27;100.00
10852;BME280;5479;52.046;6.314;2023-07-29T01:52:25;100546.81;;;17.31;100.00
10852;BME280;5479;52.046;6.314;2023-07-29T01:54:55;100549.38;;;17.33;100.00
10852;BME280;5479;52.046;6.314;2023-07-29T01:57:23;100548.22;;;17.26;100.00
10852;BME280;5479;52.046;6.314;2023-07-29T01:59:51;100554.16;;;17.20;100.00
10852;BME280;5479;52.046;6.314;2023-07-29T02:02:19;100557.94;;;17.08;100.00
10852;BME280;5479;52.046;6.314;2023-07-29T02:04:47;100558.63;;;17.10;100.00
10852;BME280;5479;52.046;6.314;2023-07-29T02:07:18;100563.69;;;17.13;100.00
10852;BME280;5479;52.046;6.314;2023-07-29T02:09:47;100563.69;;;17.13;100.00
10852;BME280;5479;52.046;6.314;2023-07-29T02:12:18;100571.72;;;17.13;100.00
10852;BME280;5479;52.046;6.314;2023-07-29T02:14:46;100569.06;;;17.13;100.00
10852;BME280;5479;52.046;6.314;2023-07-29T02:17:14;100566.53;;;17.21;100.00
10852;BME280;5479;52.046;6.314;2023-07-29T02:19:45;100552.44;;;17.19;100.00
10852;BME280;5479;52.046;6.314;2023-07-29T02:22:16;100556.69;;;17.21;100.00
10852;BME280;5479;52.046;6.314;2023-07-29T02:24:45;100550.78;;;17.27;100.00
10852;BME280;5479;52.046;6.314;2023-07-29T02:27:13;100550.06;;;17.35;100.00
10852;BME280;5479;52.046;6.314;2023-07-29T02:29:42;100549.38;;;17.42;100.00
10852;BME280;5479;52.046;6.314;2023-07-29T02:32:10;100547.38;;;17.44;100.00
10852;BME280;5479;52.046;6.314;2023-07-29T02:34:38;100549.66;;;17.49;100.00
10852;BME280;5479;52.046;6.314;2023-07-29T02:37:16;100549.38;;;17.52;100.00
10852;BME280;5479;52.046;6.314;2023-07-29T02:39:45;100557.59;;;17.60;100.00
10852;BME280;5479;52.046;6.314;2023-07-29T02:42:15;100559.00;;;17.64;100.00
10852;BME280;5479;52.046;6.314;2023-07-29T02:44:45;100544.34;;;17.68;100.00
10852;BME280;5479;52.046;6.314;2023-07-29T02:47:16;100542.38;;;17.70;100.00
10852;BME280;5479;52.046;6.314;2023-07-29T02:49:44;100546.31;;;17.57;100.00
10852;BME280;5479;52.046;6.314;2023-07-29T02:52:12;100539.56;;;17.62;100.00
10852;BME280;5479;52.046;6.314;2023-07-29T02:54:42;100551.66;;;17.66;100.00
10852;BME280;5479;52.046;6.314;2023-07-29T02:57:13;100545.03;;;17.70;100.00
10852;BME280;5479;52.046;6.314;2023-07-29T02:59:46;100555.16;;;17.76;100.00
10852;BME280;5479;52.046;6.314;2023-07-29T03:02:15;100547.44;;;17.73;100.00
10852;BME280;5479;52.046;6.314;2023-07-29T03:04:43;100553.75;;;17.82;100.00
10852;BME280;5479;52.046;6.314;2023-07-29T03:07:11;100555.72;;;17.89;100.00
10852;BME280;5479;52.046;6.314;2023-07-29T03:09:42;100549.94;;;17.84;100.00
10852;BME280;5479;52.046;6.314;2023-07-29T03:12:11;100539.94;;;17.86;100.00
10852;BME280;5479;52.046;6.314;2023-07-29T03:14:39;100536.53;;;17.84;100.00
10852;BME280;5479;52.046;6.314;2023-07-29T03:17:09;100537.28;;;17.86;100.00
10852;BME280;5479;52.046;6.314;2023-07-29T03:19:39;100541.63;;;17.87;100.00
10852;BME280;5479;52.046;6.314;2023-07-29T03:22:07;100536.66;;;17.92;100.00
10852;BME280;5479;52.046;6.314;2023-07-29T03:24:36;100532.16;;;17.93;100.00
10852;BME280;5479;52.046;6.314;2023-07-29T03:27:13;100540.88;;;18.04;100.00
10852;BME280;5479;52.046;6.314;2023-07-29T03:29:42;100543.69;;;18.13;100.00
10852;BME280;5479;52.046;6.314;2023-07-29T03:32:15;100546.50;;;18.11;100.00
10852;BME280;5479;52.046;6.314;2023-07-29T03:34:43;100547.94;;;18.05;100.00
10852;BME280;5479;52.046;6.314;2023-07-29T03:37:12;100549.63;;;18.06;100.00
10852;BME280;5479;52.046;6.314;2023-07-29T03:39:40;100539.91;;;18.05;100.00
10852;BME280;5479;52.046;6.314;2023-07-29T03:42:09;100547.63;;;18.08;100.00
10852;BME280;5479;52.046;6.314;2023-07-29T03:44:37;100547.34;;;18.12;100.00
10852;BME280;5479;52.046;6.314;2023-07-29T03:47:07;100544.53;;;18.13;100.00
10852;BME280;5479;52.046;6.314;2023-07-29T03:49:36;100548.47;;;18.19;100.00
10852;BME280;5479;52.046;6.314;2023-07-29T03:52:05;100541.97;;;18.21;100.00
10852;BME280;5479;52.046;6.314;2023-07-29T03:54:33;100543.13;;;18.19;100.00
10852;BME280;5479;52.046;6.314;2023-07-29T03:57:03;100541.97;;;18.21;100.00
10852;BME280;5479;52.046;6.314;2023-07-29T03:59:32;100544.22;;;18.26;100.00
10852;BME280;5479;52.046;6.314;2023-07-29T04:02:01;100529.28;;;18.23;100.00
10852;BME280;5479;52.046;6.314;2023-07-29T04:04:29;100521.06;;;18.25;100.00
10852;BME280;5479;52.046;6.314;2023-07-29T04:06:59;100532.81;;;18.24;100.00
10852;BME280;5479;52.046;6.314;2023-07-29T04:09:27;100527.03;;;18.19;100.00
10852;BME280;5479;52.046;6.314;2023-07-29T04:11:55;100528.72;;;18.20;100.00
10852;BME280;5479;52.046;6.314;2023-07-29T04:14:23;100526.75;;;18.22;100.00
10852;BME280;5479;52.046;6.314;2023-07-29T04:16:51;100526.75;;;18.22;100.00
10852;BME280;5479;52.046;6.314;2023-07-29T04:19:19;100527.84;;;18.19;100.00
10852;BME280;5479;52.046;6.314;2023-07-29T04:21:51;100528.72;;;18.20;100.00
10852;BME280;5479;52.046;6.314;2023-07-29T04:24:24;100526.75;;;18.22;100.00
10852;BME280;5479;52.046;6.314;2023-07-29T04:26:52;100519.41;;;18.24;100.00
10852;BME280;5479;52.046;6.314;2023-07-29T04:29:23;100533.94;;;18.21;100.00
10852;BME280;5479;52.046;6.314;2023-07-29T04:31:52;100533.09;;;18.21;100.00
10852;BME280;5479;52.046;6.314;2023-07-29T04:34:21;100526.75;;;18.22;100.00
10852;BME280;5479;52.046;6.314;2023-07-29T04:36:49;100531.78;;;18.25;100.00
10852;BME280;5479;52.046;6.314;2023-07-29T04:39:18;100535.47;;;18.24;100.00
10852;BME280;5479;52.046;6.314;2023-07-29T04:41:47;100534.91;;;18.20;100.00
10852;BME280;5479;52.046;6.314;2023-07-29T04:44:15;100532.69;;;18.16;100.00
10852;BME280;5479;52.046;6.314;2023-07-29T04:46:43;100533.38;;;18.18;100.00
10852;BME280;5479;52.046;6.314;2023-07-29T04:49:13;100521.81;;;18.17;100.00
10852;BME280;5479;52.046;6.314;2023-07-29T04:51:41;100519.41;;;18.14;100.00
10852;BME280;5479;52.046;6.314;2023-07-29T04:54:10;100503.03;;;18.17;100.00
10852;BME280;5479;52.046;6.314;2023-07-29T04:56:38;100497.28;;;18.22;100.00
10852;BME280;5479;52.046;6.314;2023-07-29T04:59:07;100495.69;;;18.19;100.00
10852;BME280;5479;52.046;6.314;2023-07-29T05:01:36;100499.94;;;18.22;100.00
10852;BME280;5479;52.046;6.314;2023-07-29T05:04:04;100489.91;;;18.24;100.00
10852;BME280;5479;52.046;6.314;2023-07-29T05:06:32;100497.50;;;18.28;100.00
10852;BME280;5479;52.046;6.314;2023-07-29T05:09:13;100517.69;;;18.32;100.00
10852;BME280;5479;52.046;6.314;2023-07-29T05:11:41;100528.53;;;18.31;100.00
10852;BME280;5479;52.046;6.314;2023-07-29T05:14:12;100527.56;;;18.32;100.00
10852;BME280;5479;52.046;6.314;2023-07-29T05:16:40;100542.22;;;18.37;100.00
10852;BME280;5479;52.046;6.314;2023-07-29T05:19:17;100543.31;;;18.44;100.00
10852;BME280;5479;52.046;6.314;2023-07-29T05:21:45;100552.03;;;18.56;100.00
10852;BME280;5479;52.046;6.314;2023-07-29T05:24:13;100549.47;;;18.64;100.00
10852;BME280;5479;52.046;6.314;2023-07-29T05:26:43;100563.31;;;18.59;100.00
10852;BME280;5479;52.046;6.314;2023-07-29T05:29:13;100556.84;;;18.52;100.00
10852;BME280;5479;52.046;6.314;2023-07-29T05:31:41;100555.47;;;18.48;100.00
10852;BME280;5479;52.046;6.314;2023-07-29T05:34:09;100550.19;;;18.47;100.00
10852;BME280;5479;52.046;6.314;2023-07-29T05:36:37;100545.19;;;18.71;100.00
10852;BME280;5479;52.046;6.314;2023-07-29T05:39:05;100550.44;;;18.90;100.00
10852;BME280;5479;52.046;6.314;2023-07-29T05:41:34;100540.13;;;19.13;100.00
10852;BME280;5479;52.046;6.314;2023-07-29T05:44:03;100548.50;;;19.10;100.00
10852;BME280;5479;52.046;6.314;2023-07-29T05:46:33;100549.41;;;19.18;100.00
10852;BME280;5479;52.046;6.314;2023-07-29T05:49:01;100550.03;;;19.12;100.00
10852;BME280;5479;52.046;6.314;2023-07-29T05:51:32;100560.91;;;19.11;100.00
10852;BME280;5479;52.046;6.314;2023-07-29T05:54:00;100562.44;;;19.13;100.00
10852;BME280;5479;52.046;6.314;2023-07-29T05:56:31;100567.13;;;19.11;100.00
10852;BME280;5479;52.046;6.314;2023-07-29T05:58:59;100568.38;;;19.17;100.00
10852;BME280;5479;52.046;6.314;2023-07-29T06:01:27;100584.47;;;19.17;100.00
10852;BME280;5479;52.046;6.314;2023-07-29T06:03:57;100580.19;;;19.24;100.00
10852;BME280;5479;52.046;6.314;2023-07-29T06:06:25;100585.19;;;19.37;100.00
10852;BME280;5479;52.046;6.314;2023-07-29T06:08:54;100593.38;;;19.17;100.00
10852;BME280;5479;52.046;6.314;2023-07-29T06:11:22;100595.75;;;19.20;100.00
10852;BME280;5479;52.046;6.314;2023-07-29T06:13:51;100595.03;;;19.01;100.00
10852;BME280;5479;52.046;6.314;2023-07-29T06:16:19;100589.88;;;19.07;100.00
10852;BME280;5479;52.046;6.314;2023-07-29T06:18:47;100591.53;;;19.18;100.00
10852;BME280;5479;52.046;6.314;2023-07-29T06:21:17;100592.72;;;19.06;100.00
10852;BME280;5479;52.046;6.314;2023-07-29T06:23:49;100590.22;;;19.04;100.00
10852;BME280;5479;52.046;6.314;2023-07-29T06:26:17;100586.59;;;19.13;100.00
10852;BME280;5479;52.046;6.314;2023-07-29T06:28:44;100585.53;;;19.24;100.00
10852;BME280;5479;52.046;6.314;2023-07-29T06:31:11;100583.88;;;19.23;100.00
10852;BME280;5479;52.046;6.314;2023-07-29T06:33:39;100587.53;;;19.49;100.00
10852;BME280;5479;52.046;6.314;2023-07-29T06:36:07;100591.53;;;19.63;100.00
10852;BME280;5479;52.046;6.314;2023-07-29T06:38:38;100585.34;;;19.88;100.00
10852;BME280;5479;52.046;6.314;2023-07-29T06:41:06;100586.16;;;20.24;100.00
10852;BME280;5479;52.046;6.314;2023-07-29T06:43:34;100589.16;;;20.46;100.00
10852;BME280;5479;52.046;6.314;2023-07-29T06:46:03;100588.28;;;20.38;100.00
10852;BME280;5479;52.046;6.314;2023-07-29T06:48:41;100584.13;;;20.43;100.00
10852;BME280;5479;52.046;6.314;2023-07-29T06:51:12;100576.56;;;21.15;100.00
10852;BME280;5479;52.046;6.314;2023-07-29T06:53:44;100576.81;;;22.18;100.00
10852;BME280;5479;52.046;6.314;2023-07-29T06:56:12;100575.72;;;22.75;100.00
10852;BME280;5479;52.046;6.314;2023-07-29T06:58:40;100581.06;;;23.98;100.00
10852;BME280;5479;52.046;6.314;2023-07-29T07:01:11;100576.22;;;25.04;100.00
10852;BME280;5479;52.046;6.314;2023-07-29T07:03:39;100577.16;;;25.68;100.00
10852;BME280;5479;52.046;6.314;2023-07-29T07:06:07;100573.28;;;26.48;100.00
10852;BME280;5479;52.046;6.314;2023-07-29T07:08:48;100562.13;;;25.87;100.00
10852;BME280;5479;52.046;6.314;2023-07-29T07:11:20;100563.88;;;25.02;100.00
10852;BME280;5479;52.046;6.314;2023-07-29T07:13:49;100562.16;;;24.80;100.00
10852;BME280;5479;52.046;6.314;2023-07-29T07:16:19;100572.97;;;25.66;100.00
10852;BME280;5479;52.046;6.314;2023-07-29T07:18:48;100572.28;;;26.83;96.26
10852;BME280;5479;52.046;6.314;2023-07-29T07:21:23;100569.81;;;27.62;83.04
10852;BME280;5479;52.046;6.314;2023-07-29T07:23:55;100570.06;;;27.80;82.21
10852;BME280;5479;52.046;6.314;2023-07-29T07:26:25;100570.06;;;29.29;68.29
10852;BME280;5479;52.046;6.314;2023-07-29T07:28:53;100570.50;;;28.62;70.36
10852;BME280;5479;52.046;6.314;2023-07-29T07:31:23;100583.34;;;29.06;66.37
10852;BME280;5479;52.046;6.314;2023-07-29T07:33:51;100576.41;;;28.33;71.64
10852;BME280;5479;52.046;6.314;2023-07-29T07:36:19;100578.84;;;28.73;69.15
10852;BME280;5479;52.046;6.314;2023-07-29T07:38:48;100583.16;;;29.01;65.73
10852;BME280;5479;52.046;6.314;2023-07-29T07:41:16;100581.94;;;29.41;64.46
10852;BME280;5479;52.046;6.314;2023-07-29T07:43:46;100578.66;;;29.19;63.32
10852;BME280;5479;52.046;6.314;2023-07-29T07:46:15;100582.78;;;29.73;63.09
10852;BME280;5479;52.046;6.314;2023-07-29T07:48:43;100578.00;;;30.00;58.89
10852;BME280;5479;52.046;6.314;2023-07-29T07:51:14;100581.16;;;29.97;58.02
10852;BME280;5479;52.046;6.314;2023-07-29T07:53:42;100584.50;;;29.67;58.92
10852;BME280;5479;52.046;6.314;2023-07-29T07:56:10;100585.38;;;29.17;61.40
10852;BME280;5479;52.046;6.314;2023-07-29T07:58:39;100581.19;;;28.37;64.88
10852;BME280;5479;52.046;6.314;2023-07-29T08:01:08;100584.78;;;28.25;69.98
10852;BME280;5479;52.046;6.314;2023-07-29T08:03:41;100588.56;;;29.58;65.66
10852;BME280;5479;52.046;6.314;2023-07-29T08:06:12;100581.63;;;30.18;59.13
10852;BME280;5479;52.046;6.314;2023-07-29T08:08:41;100594.56;;;29.36;59.38
10852;BME280;5479;52.046;6.314;2023-07-29T08:11:10;100590.22;;;28.25;67.03
10852;BME280;5479;52.046;6.314;2023-07-29T08:13:43;100601.13;;;26.28;85.52
10852;BME280;5479;52.046;6.314;2023-07-29T08:16:15;100597.72;;;25.77;96.44
10852;BME280;5479;52.046;6.314;2023-07-29T08:18:43;100595.94;;;24.69;100.00
10852;BME280;5479;52.046;6.314;2023-07-29T08:21:11;100587.94;;;24.90;100.00
10852;BME280;5479;52.046;6.314;2023-07-29T08:23:40;100590.44;;;25.06;100.00
10852;BME280;5479;52.046;6.314;2023-07-29T08:26:09;100597.81;;;24.83;100.00
10852;BME280;5479;52.046;6.314;2023-07-29T08:28:41;100592.69;;;25.03;100.00
10852;BME280;5479;52.046;6.314;2023-07-29T08:31:09;100596.50;;;25.08;100.00
10852;BME280;5479;52.046;6.314;2023-07-29T08:33:37;100593.03;;;24.56;100.00
10852;BME280;5479;52.046;6.314;2023-07-29T08:36:11;100595.38;;;23.84;100.00
10852;BME280;5479;52.046;6.314;2023-07-29T08:38:44;100600.41;;;23.87;100.00
10852;BME280;5479;52.046;6.314;2023-07-29T08:41:14;100604.84;;;23.58;100.00
10852;BME280;5479;52.046;6.314;2023-07-29T08:43:50;100603.28;;;23.63;100.00
10852;BME280;5479;52.046;6.314;2023-07-29T08:46:20;100615.31;;;23.38;100.00
10852;BME280;5479;52.046;6.314;2023-07-29T08:48:49;100610.22;;;22.96;100.00
10852;BME280;5479;52.046;6.314;2023-07-29T08:51:19;100618.22;;;22.81;100.00
10852;BME280;5479;52.046;6.314;2023-07-29T08:53:49;100623.13;;;22.62;100.00
10852;BME280;5479;52.046;6.314;2023-07-29T08:56:17;100623.34;;;22.36;100.00
10852;BME280;5479;52.046;6.314;2023-07-29T08:58:47;100620.81;;;22.35;100.00
10852;BME280;5479;52.046;6.314;2023-07-29T09:01:16;100617.28;;;22.26;100.00
10852;BME280;5479;52.046;6.314;2023-07-29T09:03:44;100618.78;;;22.37;100.00
10852;BME280;5479;52.046;6.314;2023-07-29T09:06:14;100626.56;;;22.15;100.00
10852;BME280;5479;52.046;6.314;2023-07-29T09:08:44;100619.97;;;22.18;100.00
10852;BME280;5479;52.046;6.314;2023-07-29T09:11:13;100632.47;;;22.19;100.00
10852;BME280;5479;52.046;6.314;2023-07-29T09:13:49;100630.78;;;22.18;100.00
10852;BME280;5479;52.046;6.314;2023-07-29T09:16:17;100623.72;;;22.17;100.00
10852;BME280;5479;52.046;6.314;2023-07-29T09:18:47;100624.72;;;22.00;100.00
10852;BME280;5479;52.046;6.314;2023-07-29T09:21:17;100621.00;;;22.41;100.00
10852;BME280;5479;52.046;6.314;2023-07-29T09:23:45;100620.84;;;23.06;100.00
10852;BME280;5479;52.046;6.314;2023-07-29T09:26:13;100619.75;;;23.15;100.00
10852;BME280;5479;52.046;6.314;2023-07-29T09:28:41;100619.16;;;23.89;100.00
10852;BME280;5479;52.046;6.314;2023-07-29T09:31:21;100617.38;;;24.56;100.00
10852;BME280;5479;52.046;6.314;2023-07-29T09:33:50;100610.06;;;24.79;100.00
10852;BME280;5479;52.046;6.314;2023-07-29T09:36:23;100613.13;;;24.76;100.00
10852;BME280;5479;52.046;6.314;2023-07-29T09:38:56;100603.19;;;25.12;100.00
10852;BME280;5479;52.046;6.314;2023-07-29T09:41:27;100602.72;;;25.24;100.00
10852;BME280;5479;52.046;6.314;2023-07-29T09:43:58;100602.28;;;24.76;100.00
10852;BME280;5479;52.046;6.314;2023-07-29T09:46:34;100604.16;;;24.61;100.00
10852;BME280;5479;52.046;6.314;2023-07-29T09:49:03;100601.75;;;24.14;100.00
10852;BME280;5479;52.046;6.314;2023-07-29T09:51:37;100603.78;;;23.36;100.00
10852;BME280;5479;52.046;6.314;2023-07-29T09:54:05;100604.50;;;23.38;100.00
10852;BME280;5479;52.046;6.314;2023-07-29T09:56:39;100591.09;;;23.45;100.00
10852;BME280;5479;52.046;6.314;2023-07-29T09:59:09;100598.91;;;24.08;100.00
10852;BME280;5479;52.046;6.314;2023-07-29T10:01:39;100586.59;;;24.57;100.00
10852;BME280;5479;52.046;6.314;2023-07-29T10:04:08;100583.13;;;25.07;100.00
10852;BME280;5479;52.046;6.314;2023-07-29T10:06:37;100588.47;;;25.93;100.00
10852;BME280;5479;52.046;6.314;2023-07-29T10:09:07;100583.63;;;27.00;92.55
10852;BME280;5479;52.046;6.314;2023-07-29T10:11:35;100588.88;;;27.01;85.87
10852;BME280;5479;52.046;6.314;2023-07-29T10:14:02;100592.44;;;27.08;85.68
10852;BME280;5479;52.046;6.314;2023-07-29T10:16:31;100588.19;;;27.40;83.33
10852;BME280;5479;52.046;6.314;2023-07-29T10:19:04;100605.72;;;26.90;83.23
10852;BME280;5479;52.046;6.314;2023-07-29T10:21:38;100595.44;;;26.23;90.79
10852;BME280;5479;52.046;6.314;2023-07-29T10:24:12;100596.78;;;26.96;86.74
10852;BME280;5479;52.046;6.314;2023-07-29T10:26:43;100595.88;;;27.30;81.72
10852;BME280;5479;52.046;6.314;2023-07-29T10:29:14;100600.69;;;26.87;85.69
10852;BME280;5479;52.046;6.314;2023-07-29T10:31:47;100606.81;;;25.91;95.03
10852;BME280;5479;52.046;6.314;2023-07-29T10:34:16;100594.16;;;25.98;98.36
10852;BME280;5479;52.046;6.314;2023-07-29T10:36:48;100587.56;;;26.90;89.33
10852;BME280;5479;52.046;6.314;2023-07-29T10:39:17;100588.75;;;28.22;78.11
10852;BME280;5479;52.046;6.314;2023-07-29T10:41:54;100591.22;;;29.34;66.57
10852;BME280;5479;52.046;6.314;2023-07-29T10:44:50;100578.88;;;28.67;71.77
10852;BME280;5479;52.046;6.314;2023-07-29T10:47:21;100586.19;;;30.00;66.21
10852;BME280;5479;52.046;6.314;2023-07-29T10:49:56;100568.97;;;31.69;58.82
10852;BME280;5479;52.046;6.314;2023-07-29T10:52:39;100572.28;;;31.59;55.64
10852;BME280;5479;52.046;6.314;2023-07-29T10:55:29;100568.75;;;30.25;58.02
10852;BME280;5479;52.046;6.314;2023-07-29T10:58:12;100574.69;;;30.47;57.43
10852;BME280;5479;52.046;6.314;2023-07-29T11:00:42;100585.03;;;29.07;63.68
10852;BME280;5479;52.046;6.314;2023-07-29T11:03:13;100576.56;;;27.85;68.95
10852;BME280;5479;52.046;6.314;2023-07-29T11:05:49;100577.59;;;27.58;74.09
10852;BME280;5479;52.046;6.314;2023-07-29T11:08:19;100571.28;;;27.44;80.16
10852;BME280;5479;52.046;6.314;2023-07-29T11:11:15;100570.47;;;27.57;77.27
10852;BME280;5479;52.046;6.314;2023-07-29T11:13:45;100574.69;;;27.99;74.43
10852;BME280;5479;52.046;6.314;2023-07-29T11:16:16;100574.47;;;28.59;68.57
10852;BME280;5479;52.046;6.314;2023-07-29T11:18:48;100576.75;;;28.76;68.25
10852;BME280;5479;52.046;6.314;2023-07-29T11:21:18;100580.56;;;28.09;69.70
10852;BME280;5479;52.046;6.314;2023-07-29T11:23:46;100579.06;;;27.67;72.14
10852;BME280;5479;52.046;6.314;2023-07-29T11:26:14;100576.34;;;27.74;74.01
10852;BME280;5479;52.046;6.314;2023-07-29T11:28:42;100581.16;;;27.91;72.65
10852;BME280;5479;52.046;6.314;2023-07-29T11:31:11;100570.09;;;28.26;73.61
10852;BME280;5479;52.046;6.314;2023-07-29T11:33:39;100564.53;;;28.91;68.54
10852;BME280;5479;52.046;6.314;2023-07-29T11:36:18;100576.66;;;29.02;67.75
10852;BME280;5479;52.046;6.314;2023-07-29T11:38:50;100575.44;;;28.91;65.66
10852;BME280;5479;52.046;6.314;2023-07-29T11:41:21;100579.28;;;28.44;66.74
10852;BME280;5479;52.046;6.314;2023-07-29T11:43:52;100578.28;;;28.06;68.82
10852;BME280;5479;52.046;6.314;2023-07-29T11:46:22;100579.63;;;27.43;72.50
10852;BME280;5479;52.046;6.314;2023-07-29T11:48:54;100575.69;;;26.98;79.44
10852;BME280;5479;52.046;6.314;2023-07-29T11:51:25;100571.44;;;26.89;79.98
10852;BME280;5479;52.046;6.314;2023-07-29T11:53:56;100579.19;;;26.58;86.35
10852;BME280;5479;52.046;6.314;2023-07-29T11:56:26;100568.84;;;26.74;88.61
10852;BME280;5479;52.046;6.314;2023-07-29T11:58:56;100569.97;;;26.24;93.15
10852;BME280;5479;52.046;6.314;2023-07-29T12:01:26;100573.09;;;25.79;97.52
10852;BME280;5479;52.046;6.314;2023-07-29T12:03:54;100574.66;;;24.66;100.00
10852;BME280;5479;52.046;6.314;2023-07-29T12:06:26;100571.09;;;24.51;100.00
10852;BME280;5479;52.046;6.314;2023-07-29T12:08:55;100578.84;;;24.39;100.00
10852;BME280;5479;52.046;6.314;2023-07-29T12:11:23;100576.41;;;24.44;100.00
10852;BME280;5479;52.046;6.314;2023-07-29T12:13:53;100577.03;;;24.32;100.00
10852;BME280;5479;52.046;6.314;2023-07-29T12:16:21;100580.94;;;24.15;100.00
10852;BME280;5479;52.046;6.314;2023-07-29T12:18:50;100583.59;;;23.77;100.00
10852;BME280;5479;52.046;6.314;2023-07-29T12:21:18;100587.19;;;23.47;100.00
10852;BME280;5479;52.046;6.314;2023-07-29T12:23:49;100595.34;;;23.31;100.00
10852;BME280;5479;52.046;6.314;2023-07-29T12:26:40;100598.09;;;22.92;100.00
10852;BME280;5479;52.046;6.314;2023-07-29T12:29:12;100593.16;;;22.96;100.00
10852;BME280;5479;52.046;6.314;2023-07-29T12:31:41;100592.63;;;22.53;100.00
10852;BME280;5479;52.046;6.314;2023-07-29T12:34:09;100596.72;;;22.33;100.00
10852;BME280;5479;52.046;6.314;2023-07-29T12:36:42;100589.50;;;22.17;100.00
10852;BME280;5479;52.046;6.314;2023-07-29T12:39:27;100595.34;;;21.64;100.00
10852;BME280;5479;52.046;6.314;2023-07-29T12:41:59;100607.41;;;21.28;100.00
10852;BME280;5479;52.046;6.314;2023-07-29T12:44:30;100616.59;;;20.76;100.00
10852;BME280;5479;52.046;6.314;2023-07-29T12:47:00;100626.75;;;20.38;100.00
10852;BME280;5479;52.046;6.314;2023-07-29T12:49:29;100622.44;;;20.02;100.00
10852;BME280;5479;52.046;6.314;2023-07-29T12:51:56;100631.03;;;19.88;100.00
10852;BME280;5479;52.046;6.314;2023-07-29T12:54:28;100624.44;;;19.65;100.00
10852;BME280;5479;52.046;6.314;2023-07-29T12:56:59;100631.13;;;19.61;100.00
10852;BME280;5479;52.046;6.314;2023-07-29T12:59:32;100630.97;;;19.62;100.00
10852;BME280;5479;52.046;6.314;2023-07-29T13:02:01;100632.88;;;19.70;100.00
10852;BME280;5479;52.046;6.314;2023-07-29T13:04:29;100643.03;;;19.76;100.00
10852;BME280;5479;52.046;6.314;2023-07-29T13:06:57;100648.38;;;19.94;100.00
10852;BME280;5479;52.046;6.314;2023-07-29T13:09:31;100652.97;;;20.36;100.00